aviador You're here:

KQKG Decoded Metar

in
Report Time2018-05-23 15:55:00
UTC Time2018-05-23 16:31:13
Flight Rules vfr VFR
WindCalm
Visibility9999 m
Phenomena:N/A
Clouds:Few 170 Hf
Expected CloudBase > 800 ft AGL from Temp-Dew spread
CeilingNone
Temp18°C
Dew Point16°C (88% RH)
QNH1013 hPa
Raw Report
METAR KQKG 231555Z AUTO 00000KT 10SM FEW170 18/16 A2992 RMK AO2 LTG
DSNT N SHRAB1407E1535 SLP095 WND DATA ESTMD P0001 T01840155 $=

Extra information for KQKG:More info

Social comments